sensor_id;sensor_type;location;lat;lon;timestamp;temperature;humidity
5592;DHT22;2818;49.790;9.958;2023-01-08T00:01:16;5.80;27.40
5592;DHT22;2818;49.790;9.958;2023-01-08T00:03:43;5.80;31.00
5592;DHT22;2818;49.790;9.958;2023-01-08T00:06:13;5.90;30.40
5592;DHT22;2818;49.790;9.958;2023-01-08T00:08:41;5.90;26.00
5592;DHT22;2818;49.790;9.958;2023-01-08T00:11:08;5.90;21.20
5592;DHT22;2818;49.790;9.958;2023-01-08T00:13:35;6.00;14.00
5592;DHT22;2818;49.790;9.958;2023-01-08T00:16:16;6.00;7.40
5592;DHT22;2818;49.790;9.958;2023-01-08T00:18:44;6.10;4.40
5592;DHT22;2818;49.790;9.958;2023-01-08T00:21:11;6.10;4.00
5592;DHT22;2818;49.790;9.958;2023-01-08T00:23:38;6.20;1.10
5592;DHT22;2818;49.790;9.958;2023-01-08T00:26:07;6.20;1.00
5592;DHT22;2818;49.790;9.958;2023-01-08T00:28:35;6.20;1.00
5592;DHT22;2818;49.790;9.958;2023-01-08T00:31:03;6.20;1.00
5592;DHT22;2818;49.790;9.958;2023-01-08T00:33:30;6.30;1.00
5592;DHT22;2818;49.790;9.958;2023-01-08T00:35:58;6.30;1.00
5592;DHT22;2818;49.790;9.958;2023-01-08T00:38:28;6.30;1.00
5592;DHT22;2818;49.790;9.958;2023-01-08T00:40:55;6.30;1.00
5592;DHT22;2818;49.790;9.958;2023-01-08T00:43:23;6.30;1.00
5592;DHT22;2818;49.790;9.958;2023-01-08T00:45:50;6.30;1.00
5592;DHT22;2818;49.790;9.958;2023-01-08T00:48:20;6.30;1.00
5592;DHT22;2818;49.790;9.958;2023-01-08T00:50:53;6.40;1.00
5592;DHT22;2818;49.790;9.958;2023-01-08T00:53:21;6.40;1.00
5592;DHT22;2818;49.790;9.958;2023-01-08T00:55:48;6.40;1.00
5592;DHT22;2818;49.790;9.958;2023-01-08T00:58:15;6.40;1.00
5592;DHT22;2818;49.790;9.958;2023-01-08T01:00:42;6.50;1.00
5592;DHT22;2818;49.790;9.958;2023-01-08T01:03:09;6.50;1.00
5592;DHT22;2818;49.790;9.958;2023-01-08T01:05:36;6.50;1.00
5592;DHT22;2818;49.790;9.958;2023-01-08T01:08:03;6.50;1.00
5592;DHT22;2818;49.790;9.958;2023-01-08T01:10:30;6.50;1.00
5592;DHT22;2818;49.790;9.958;2023-01-08T01:12:57;6.50;1.00
5592;DHT22;2818;49.790;9.958;2023-01-08T01:15:24;6.50;1.00
5592;DHT22;2818;49.790;9.958;2023-01-08T01:17:51;6.40;1.00
5592;DHT22;2818;49.790;9.958;2023-01-08T01:20:18;6.40;1.00
5592;DHT22;2818;49.790;9.958;2023-01-08T01:22:45;6.40;1.00
5592;DHT22;2818;49.790;9.958;2023-01-08T01:25:12;6.40;1.00
5592;DHT22;2818;49.790;9.958;2023-01-08T01:27:39;6.40;1.00
5592;DHT22;2818;49.790;9.958;2023-01-08T01:30:07;6.40;1.00
5592;DHT22;2818;49.790;9.958;2023-01-08T01:32:34;6.30;1.00
5592;DHT22;2818;49.790;9.958;2023-01-08T01:35:02;6.30;1.00
5592;DHT22;2818;49.790;9.958;2023-01-08T01:37:29;6.30;1.00
5592;DHT22;2818;49.790;9.958;2023-01-08T01:39:55;6.30;1.00
5592;DHT22;2818;49.790;9.958;2023-01-08T01:42:23;6.30;1.00
5592;DHT22;2818;49.790;9.958;2023-01-08T01:45:21;6.30;1.00
5592;DHT22;2818;49.790;9.958;2023-01-08T01:50:32;6.40;1.00
5592;DHT22;2818;49.790;9.958;2023-01-08T01:53:18;6.40;1.00
5592;DHT22;2818;49.790;9.958;2023-01-08T01:55:47;6.40;1.00
5592;DHT22;2818;49.790;9.958;2023-01-08T01:58:16;6.40;1.00
5592;DHT22;2818;49.790;9.958;2023-01-08T02:00:44;6.40;1.00
5592;DHT22;2818;49.790;9.958;2023-01-08T02:03:13;6.40;1.00
5592;DHT22;2818;49.790;9.958;2023-01-08T02:11:09;6.40;1.00
5592;DHT22;2818;49.790;9.958;2023-01-08T02:13:39;6.40;1.00
5592;DHT22;2818;49.790;9.958;2023-01-08T02:16:33;6.40;1.00
5592;DHT22;2818;49.790;9.958;2023-01-08T02:19:16;6.40;1.00
5592;DHT22;2818;49.790;9.958;2023-01-08T02:22:00;6.40;1.00
5592;DHT22;2818;49.790;9.958;2023-01-08T02:24:44;6.50;1.00
5592;DHT22;2818;49.790;9.958;2023-01-08T02:27:13;6.50;1.00
5592;DHT22;2818;49.790;9.958;2023-01-08T02:29:42;6.60;1.00
5592;DHT22;2818;49.790;9.958;2023-01-08T02:32:10;6.60;1.00
5592;DHT22;2818;49.790;9.958;2023-01-08T02:34:37;6.60;1.00
5592;DHT22;2818;49.790;9.958;2023-01-08T02:37:04;6.60;1.00
5592;DHT22;2818;49.790;9.958;2023-01-08T02:42:11;6.50;1.00
5592;DHT22;2818;49.790;9.958;2023-01-08T02:45:10;6.50;1.00
5592;DHT22;2818;49.790;9.958;2023-01-08T02:47:37;6.50;1.00
5592;DHT22;2818;49.790;9.958;2023-01-08T02:52:53;6.60;1.00
5592;DHT22;2818;49.790;9.958;2023-01-08T02:55:22;6.60;1.00
5592;DHT22;2818;49.790;9.958;2023-01-08T02:57:51;6.60;1.00
5592;DHT22;2818;49.790;9.958;2023-01-08T03:00:18;6.60;1.00
5592;DHT22;2818;49.790;9.958;2023-01-08T03:02:47;6.60;1.00
5592;DHT22;2818;49.790;9.958;2023-01-08T03:05:24;6.60;1.00
5592;DHT22;2818;49.790;9.958;2023-01-08T03:07:53;6.60;1.00
5592;DHT22;2818;49.790;9.958;2023-01-08T03:10:21;6.60;1.00
5592;DHT22;2818;49.790;9.958;2023-01-08T03:12:55;6.70;1.00
5592;DHT22;2818;49.790;9.958;2023-01-08T03:15:46;6.70;1.00
5592;DHT22;2818;49.790;9.958;2023-01-08T03:18:19;6.70;1.00
5592;DHT22;2818;49.790;9.958;2023-01-08T03:20:48;6.70;1.00
5592;DHT22;2818;49.790;9.958;2023-01-08T03:23:17;6.70;1.00
5592;DHT22;2818;49.790;9.958;2023-01-08T03:25:46;6.70;1.00
5592;DHT22;2818;49.790;9.958;2023-01-08T03:28:25;6.70;1.00
5592;DHT22;2818;49.790;9.958;2023-01-08T03:30:56;6.70;1.00
5592;DHT22;2818;49.790;9.958;2023-01-08T03:33:26;6.70;1.00
5592;DHT22;2818;49.790;9.958;2023-01-08T03:35:54;6.70;1.00
5592;DHT22;2818;49.790;9.958;2023-01-08T03:38:26;6.70;1.00
5592;DHT22;2818;49.790;9.958;2023-01-08T03:41:04;6.70;1.00
5592;DHT22;2818;49.790;9.958;2023-01-08T03:43:32;6.70;1.00
5592;DHT22;2818;49.790;9.958;2023-01-08T03:46:03;6.70;1.00
5592;DHT22;2818;49.790;9.958;2023-01-08T03:48:32;6.70;1.00
5592;DHT22;2818;49.790;9.958;2023-01-08T03:50:59;6.70;1.00
5592;DHT22;2818;49.790;9.958;2023-01-08T03:53:27;6.70;1.00
5592;DHT22;2818;49.790;9.958;2023-01-08T03:55:54;6.70;1.00
5592;DHT22;2818;49.790;9.958;2023-01-08T03:58:22;6.70;1.00
5592;DHT22;2818;49.790;9.958;2023-01-08T04:00:49;6.70;1.00
5592;DHT22;2818;49.790;9.958;2023-01-08T04:03:15;6.70;1.00
5592;DHT22;2818;49.790;9.958;2023-01-08T04:05:42;6.80;1.00
5592;DHT22;2818;49.790;9.958;2023-01-08T04:08:09;6.80;1.00
5592;DHT22;2818;49.790;9.958;2023-01-08T04:10:36;6.80;1.00
5592;DHT22;2818;49.790;9.958;2023-01-08T04:13:03;6.80;1.00
5592;DHT22;2818;49.790;9.958;2023-01-08T04:15:30;6.80;1.00
5592;DHT22;2818;49.790;9.958;2023-01-08T04:17:57;6.80;1.00
5592;DHT22;2818;49.790;9.958;2023-01-08T04:20:24;6.80;1.00
5592;DHT22;2818;49.790;9.958;2023-01-08T04:22:51;6.90;1.00
5592;DHT22;2818;49.790;9.958;2023-01-08T04:25:17;6.90;1.00
5592;DHT22;2818;49.790;9.958;2023-01-08T04:27:45;6.90;1.00
5592;DHT22;2818;49.790;9.958;2023-01-08T04:30:12;6.90;1.00
5592;DHT22;2818;49.790;9.958;2023-01-08T04:32:39;6.90;1.00
5592;DHT22;2818;49.790;9.958;2023-01-08T04:35:06;6.90;1.00
5592;DHT22;2818;49.790;9.958;2023-01-08T04:37:33;6.90;1.00
5592;DHT22;2818;49.790;9.958;2023-01-08T04:40:00;6.90;1.00
5592;DHT22;2818;49.790;9.958;2023-01-08T04:42:26;7.00;1.00
5592;DHT22;2818;49.790;9.958;2023-01-08T04:44:53;7.00;1.00
5592;DHT22;2818;49.790;9.958;2023-01-08T04:47:20;7.00;1.00
5592;DHT22;2818;49.790;9.958;2023-01-08T04:49:47;7.00;1.00
5592;DHT22;2818;49.790;9.958;2023-01-08T04:52:14;7.00;1.00
5592;DHT22;2818;49.790;9.958;2023-01-08T04:54:41;7.10;1.00
5592;DHT22;2818;49.790;9.958;2023-01-08T04:57:08;7.10;1.00
5592;DHT22;2818;49.790;9.958;2023-01-08T04:59:34;7.10;1.00
5592;DHT22;2818;49.790;9.958;2023-01-08T05:02:01;7.20;1.00
5592;DHT22;2818;49.790;9.958;2023-01-08T05:04:29;7.10;1.00
5592;DHT22;2818;49.790;9.958;2023-01-08T05:06:55;7.10;1.00
5592;DHT22;2818;49.790;9.958;2023-01-08T05:09:22;7.20;1.00
5592;DHT22;2818;49.790;9.958;2023-01-08T05:11:49;7.20;1.00
5592;DHT22;2818;49.790;9.958;2023-01-08T05:14:16;7.20;99.90
5592;DHT22;2818;49.790;9.958;2023-01-08T05:16:43;7.20;99.90
5592;DHT22;2818;49.790;9.958;2023-01-08T05:19:10;7.20;99.90
5592;DHT22;2818;49.790;9.958;2023-01-08T05:21:37;7.30;99.90
5592;DHT22;2818;49.790;9.958;2023-01-08T05:24:04;7.30;99.90
5592;DHT22;2818;49.790;9.958;2023-01-08T05:26:31;7.30;99.90
5592;DHT22;2818;49.790;9.958;2023-01-08T05:28:58;7.20;99.90
5592;DHT22;2818;49.790;9.958;2023-01-08T05:31:25;7.30;99.90
5592;DHT22;2818;49.790;9.958;2023-01-08T05:33:52;7.30;99.90
5592;DHT22;2818;49.790;9.958;2023-01-08T05:36:19;7.30;99.90
5592;DHT22;2818;49.790;9.958;2023-01-08T05:38:46;7.30;99.90
5592;DHT22;2818;49.790;9.958;2023-01-08T05:41:13;7.30;99.90
5592;DHT22;2818;49.790;9.958;2023-01-08T05:43:40;7.30;99.90
5592;DHT22;2818;49.790;9.958;2023-01-08T05:46:07;7.30;99.90
5592;DHT22;2818;49.790;9.958;2023-01-08T05:48:35;7.30;99.90
5592;DHT22;2818;49.790;9.958;2023-01-08T05:51:03;7.30;99.90
5592;DHT22;2818;49.790;9.958;2023-01-08T05:53:31;7.30;99.90
5592;DHT22;2818;49.790;9.958;2023-01-08T05:56:03;7.30;99.90
5592;DHT22;2818;49.790;9.958;2023-01-08T05:58:33;7.30;99.90
5592;DHT22;2818;49.790;9.958;2023-01-08T06:01:11;7.30;1.00
5592;DHT22;2818;49.790;9.958;2023-01-08T06:03:38;7.30;1.00
5592;DHT22;2818;49.790;9.958;2023-01-08T06:06:06;7.20;1.00
5592;DHT22;2818;49.790;9.958;2023-01-08T06:08:33;7.20;1.00
5592;DHT22;2818;49.790;9.958;2023-01-08T06:11:02;7.20;1.00
5592;DHT22;2818;49.790;9.958;2023-01-08T06:13:30;7.20;1.00
5592;DHT22;2818;49.790;9.958;2023-01-08T06:15:58;7.20;1.00
5592;DHT22;2818;49.790;9.958;2023-01-08T06:18:26;7.20;1.00
5592;DHT22;2818;49.790;9.958;2023-01-08T06:20:53;7.30;1.00
5592;DHT22;2818;49.790;9.958;2023-01-08T06:23:20;7.30;1.00
5592;DHT22;2818;49.790;9.958;2023-01-08T06:25:52;7.30;1.00
5592;DHT22;2818;49.790;9.958;2023-01-08T06:28:19;7.30;1.00
5592;DHT22;2818;49.790;9.958;2023-01-08T06:30:46;7.30;1.00
5592;DHT22;2818;49.790;9.958;2023-01-08T06:33:14;7.30;1.00
5592;DHT22;2818;49.790;9.958;2023-01-08T06:35:41;7.30;1.00
5592;DHT22;2818;49.790;9.958;2023-01-08T06:38:08;7.30;1.00
5592;DHT22;2818;49.790;9.958;2023-01-08T06:40:35;7.30;1.00
5592;DHT22;2818;49.790;9.958;2023-01-08T06:43:03;7.30;1.00
5592;DHT22;2818;49.790;9.958;2023-01-08T06:45:31;7.30;1.00
5592;DHT22;2818;49.790;9.958;2023-01-08T06:48:03;7.30;1.00
5592;DHT22;2818;49.790;9.958;2023-01-08T06:50:31;7.30;1.00
5592;DHT22;2818;49.790;9.958;2023-01-08T06:52:59;7.30;1.00
5592;DHT22;2818;49.790;9.958;2023-01-08T06:55:26;7.40;1.00
5592;DHT22;2818;49.790;9.958;2023-01-08T06:57:57;7.40;1.00
5592;DHT22;2818;49.790;9.958;2023-01-08T07:00:25;7.30;1.00
5592;DHT22;2818;49.790;9.958;2023-01-08T07:02:53;7.30;1.00
5592;DHT22;2818;49.790;9.958;2023-01-08T07:05:21;7.30;1.00
5592;DHT22;2818;49.790;9.958;2023-01-08T07:07:48;7.30;1.00
5592;DHT22;2818;49.790;9.958;2023-01-08T07:10:15;7.30;1.00
5592;DHT22;2818;49.790;9.958;2023-01-08T07:12:45;7.30;1.00
5592;DHT22;2818;49.790;9.958;2023-01-08T07:15:12;7.40;1.00
5592;DHT22;2818;49.790;9.958;2023-01-08T07:17:39;7.40;1.00
5592;DHT22;2818;49.790;9.958;2023-01-08T07:20:07;7.40;1.00
5592;DHT22;2818;49.790;9.958;2023-01-08T07:22:35;7.30;1.00
5592;DHT22;2818;49.790;9.958;2023-01-08T07:25:02;7.40;1.00
5592;DHT22;2818;49.790;9.958;2023-01-08T07:27:30;7.40;1.00
5592;DHT22;2818;49.790;9.958;2023-01-08T07:29:57;7.40;1.00
5592;DHT22;2818;49.790;9.958;2023-01-08T07:32:24;7.40;1.00
5592;DHT22;2818;49.790;9.958;2023-01-08T07:34:51;7.40;1.00
5592;DHT22;2818;49.790;9.958;2023-01-08T07:37:20;7.50;1.00
5592;DHT22;2818;49.790;9.958;2023-01-08T07:39:47;7.40;1.00
5592;DHT22;2818;49.790;9.958;2023-01-08T07:42:14;7.50;1.00
5592;DHT22;2818;49.790;9.958;2023-01-08T07:44:41;7.50;1.00
5592;DHT22;2818;49.790;9.958;2023-01-08T07:47:07;7.50;1.00
5592;DHT22;2818;49.790;9.958;2023-01-08T07:49:34;7.60;1.00
5592;DHT22;2818;49.790;9.958;2023-01-08T07:52:01;7.60;1.00
5592;DHT22;2818;49.790;9.958;2023-01-08T07:54:28;7.60;1.00
5592;DHT22;2818;49.790;9.958;2023-01-08T07:56:55;7.60;1.00
5592;DHT22;2818;49.790;9.958;2023-01-08T07:59:22;7.70;1.00
5592;DHT22;2818;49.790;9.958;2023-01-08T08:01:48;7.70;1.00
5592;DHT22;2818;49.790;9.958;2023-01-08T08:04:15;7.70;1.00
5592;DHT22;2818;49.790;9.958;2023-01-08T08:06:42;7.70;1.00
5592;DHT22;2818;49.790;9.958;2023-01-08T08:09:09;7.80;1.00
5592;DHT22;2818;49.790;9.958;2023-01-08T08:11:36;7.80;1.00
5592;DHT22;2818;49.790;9.958;2023-01-08T08:14:04;7.70;1.00
5592;DHT22;2818;49.790;9.958;2023-01-08T08:16:31;7.80;1.00
5592;DHT22;2818;49.790;9.958;2023-01-08T08:18:59;7.80;1.00
5592;DHT22;2818;49.790;9.958;2023-01-08T08:21:26;7.70;1.00
5592;DHT22;2818;49.790;9.958;2023-01-08T08:23:55;7.80;1.00
5592;DHT22;2818;49.790;9.958;2023-01-08T08:26:22;7.80;1.00
5592;DHT22;2818;49.790;9.958;2023-01-08T08:28:49;7.80;1.00
5592;DHT22;2818;49.790;9.958;2023-01-08T08:31:16;7.80;1.00
5592;DHT22;2818;49.790;9.958;2023-01-08T08:33:43;7.80;1.00
5592;DHT22;2818;49.790;9.958;2023-01-08T08:36:10;7.80;1.00
5592;DHT22;2818;49.790;9.958;2023-01-08T08:38:37;7.90;1.00
5592;DHT22;2818;49.790;9.958;2023-01-08T08:41:05;7.90;1.00
5592;DHT22;2818;49.790;9.958;2023-01-08T08:43:33;7.90;1.00
5592;DHT22;2818;49.790;9.958;2023-01-08T08:45:59;7.90;7.00
5592;DHT22;2818;49.790;9.958;2023-01-08T08:48:26;8.00;18.00
5592;DHT22;2818;49.790;9.958;2023-01-08T08:50:53;8.00;30.00
5592;DHT22;2818;49.790;9.958;2023-01-08T08:53:20;8.00;41.70
5592;DHT22;2818;49.790;9.958;2023-01-08T08:55:47;8.00;58.90
5592;DHT22;2818;49.790;9.958;2023-01-08T08:58:14;8.00;63.10
5592;DHT22;2818;49.790;9.958;2023-01-08T09:00:42;8.00;91.30
5592;DHT22;2818;49.790;9.958;2023-01-08T09:03:15;8.00;97.60
5592;DHT22;2818;49.790;9.958;2023-01-08T09:05:42;8.00;99.90
5592;DHT22;2818;49.790;9.958;2023-01-08T09:08:10;8.00;99.90
5592;DHT22;2818;49.790;9.958;2023-01-08T09:10:38;8.00;99.90
5592;DHT22;2818;49.790;9.958;2023-01-08T09:13:08;8.00;99.90
5592;DHT22;2818;49.790;9.958;2023-01-08T09:15:36;8.10;99.90
5592;DHT22;2818;49.790;9.958;2023-01-08T09:18:03;8.10;99.90
5592;DHT22;2818;49.790;9.958;2023-01-08T09:20:30;8.10;99.90
5592;DHT22;2818;49.790;9.958;2023-01-08T09:22:59;8.10;99.90
5592;DHT22;2818;49.790;9.958;2023-01-08T09:25:26;8.10;99.90
5592;DHT22;2818;49.790;9.958;2023-01-08T09:28:04;8.10;99.90
5592;DHT22;2818;49.790;9.958;2023-01-08T09:30:31;8.10;99.90
5592;DHT22;2818;49.790;9.958;2023-01-08T09:33:00;8.20;99.90
5592;DHT22;2818;49.790;9.958;2023-01-08T09:35:29;8.20;99.90
5592;DHT22;2818;49.790;9.958;2023-01-08T09:37:56;8.10;99.90
5592;DHT22;2818;49.790;9.958;2023-01-08T09:40:29;8.20;99.90
5592;DHT22;2818;49.790;9.958;2023-01-08T09:43:00;8.20;99.90
5592;DHT22;2818;49.790;9.958;2023-01-08T09:45:30;8.20;99.90
5592;DHT22;2818;49.790;9.958;2023-01-08T09:47:59;8.20;99.90
5592;DHT22;2818;49.790;9.958;2023-01-08T09:50:28;8.20;99.90
5592;DHT22;2818;49.790;9.958;2023-01-08T09:52:56;8.20;99.90
5592;DHT22;2818;49.790;9.958;2023-01-08T09:55:23;8.30;99.90
5592;DHT22;2818;49.790;9.958;2023-01-08T09:57:51;8.30;99.90
5592;DHT22;2818;49.790;9.958;2023-01-08T10:00:27;8.30;99.90
5592;DHT22;2818;49.790;9.958;2023-01-08T10:02:55;8.40;99.90
5592;DHT22;2818;49.790;9.958;2023-01-08T10:05:25;8.40;99.90
5592;DHT22;2818;49.790;9.958;2023-01-08T10:07:53;8.40;99.90
5592;DHT22;2818;49.790;9.958;2023-01-08T10:10:28;8.50;99.90
5592;DHT22;2818;49.790;9.958;2023-01-08T10:12:56;8.40;99.90
5592;DHT22;2818;49.790;9.958;2023-01-08T10:15:24;8.50;99.90
5592;DHT22;2818;49.790;9.958;2023-01-08T10:20:22;8.50;99.90
5592;DHT22;2818;49.790;9.958;2023-01-08T10:22:51;8.50;99.90
5592;DHT22;2818;49.790;9.958;2023-01-08T10:25:22;8.50;99.90
5592;DHT22;2818;49.790;9.958;2023-01-08T10:28:01;8.50;99.90
5592;DHT22;2818;49.790;9.958;2023-01-08T10:30:38;8.50;99.90
5592;DHT22;2818;49.790;9.958;2023-01-08T10:33:25;8.50;99.90
5592;DHT22;2818;49.790;9.958;2023-01-08T10:36:03;8.60;99.90
5592;DHT22;2818;49.790;9.958;2023-01-08T10:38:35;8.60;99.90
5592;DHT22;2818;49.790;9.958;2023-01-08T10:41:05;8.60;99.90
5592;DHT22;2818;49.790;9.958;2023-01-08T10:43:42;8.60;99.90
5592;DHT22;2818;49.790;9.958;2023-01-08T10:49:04;8.60;99.90
5592;DHT22;2818;49.790;9.958;2023-01-08T10:51:32;8.60;99.90
5592;DHT22;2818;49.790;9.958;2023-01-08T10:54:13;8.60;99.90
5592;DHT22;2818;49.790;9.958;2023-01-08T10:56:42;8.60;99.90
5592;DHT22;2818;49.790;9.958;2023-01-08T10:59:19;8.60;99.90
5592;DHT22;2818;49.790;9.958;2023-01-08T11:01:48;8.60;99.90
5592;DHT22;2818;49.790;9.958;2023-01-08T11:04:29;8.60;99.90
5592;DHT22;2818;49.790;9.958;2023-01-08T11:07:03;8.60;99.90
5592;DHT22;2818;49.790;9.958;2023-01-08T11:09:44;8.60;99.90
5592;DHT22;2818;49.790;9.958;2023-01-08T11:14:49;8.70;99.90
5592;DHT22;2818;49.790;9.958;2023-01-08T11:17:17;8.70;99.90
5592;DHT22;2818;49.790;9.958;2023-01-08T11:19:44;8.70;99.90
5592;DHT22;2818;49.790;9.958;2023-01-08T11:22:19;8.70;99.90
5592;DHT22;2818;49.790;9.958;2023-01-08T11:24:46;8.70;99.90
5592;DHT22;2818;49.790;9.958;2023-01-08T11:34:50;8.80;99.90
5592;DHT22;2818;49.790;9.958;2023-01-08T11:37:22;8.80;99.90
5592;DHT22;2818;49.790;9.958;2023-01-08T11:39:51;8.80;99.90
5592;DHT22;2818;49.790;9.958;2023-01-08T11:45:16;8.80;99.90
5592;DHT22;2818;49.790;9.958;2023-01-08T12:01:41;8.80;99.90
5592;DHT22;2818;49.790;9.958;2023-01-08T12:07:37;9.00;99.90
5592;DHT22;2818;49.790;9.958;2023-01-08T12:19:35;9.40;99.90
5592;DHT22;2818;49.790;9.958;2023-01-08T12:24:57;9.80;61.20
5592;DHT22;2818;49.790;9.958;2023-01-08T12:35:42;10.40;1.00
5592;DHT22;2818;49.790;9.958;2023-01-08T12:38:14;10.40;1.00
5592;DHT22;2818;49.790;9.958;2023-01-08T12:40:49;10.40;1.00
5592;DHT22;2818;49.790;9.958;2023-01-08T12:43:30;10.60;1.00
5592;DHT22;2818;49.790;9.958;2023-01-08T12:46:00;10.60;1.00
5592;DHT22;2818;49.790;9.958;2023-01-08T12:48:31;10.50;1.00
5592;DHT22;2818;49.790;9.958;2023-01-08T12:54:21;10.50;1.00
5592;DHT22;2818;49.790;9.958;2023-01-08T13:04:44;10.40;1.00
5592;DHT22;2818;49.790;9.958;2023-01-08T13:07:22;10.40;1.00
5592;DHT22;2818;49.790;9.958;2023-01-08T13:10:07;10.20;1.00
5592;DHT22;2818;49.790;9.958;2023-01-08T13:12:39;10.20;1.00
5592;DHT22;2818;49.790;9.958;2023-01-08T13:15:07;10.20;1.00
5592;DHT22;2818;49.790;9.958;2023-01-08T13:17:36;10.20;1.00
5592;DHT22;2818;49.790;9.958;2023-01-08T13:20:05;10.40;1.00
5592;DHT22;2818;49.790;9.958;2023-01-08T13:22:34;10.60;1.00
5592;DHT22;2818;49.790;9.958;2023-01-08T13:27:44;10.60;1.00
5592;DHT22;2818;49.790;9.958;2023-01-08T13:32:57;10.70;1.00
5592;DHT22;2818;49.790;9.958;2023-01-08T13:35:26;10.70;1.00
5592;DHT22;2818;49.790;9.958;2023-01-08T13:43:37;10.60;1.00
5592;DHT22;2818;49.790;9.958;2023-01-08T13:46:16;10.50;1.00
5592;DHT22;2818;49.790;9.958;2023-01-08T13:49:04;10.50;1.00
5592;DHT22;2818;49.790;9.958;2023-01-08T13:51:41;10.50;1.00
5592;DHT22;2818;49.790;9.958;2023-01-08T13:56:41;10.40;1.00
5592;DHT22;2818;49.790;9.958;2023-01-08T13:59:33;10.30;1.00
5592;DHT22;2818;49.790;9.958;2023-01-08T14:02:01;10.30;1.00
5592;DHT22;2818;49.790;9.958;2023-01-08T14:04:29;10.40;1.00
5592;DHT22;2818;49.790;9.958;2023-01-08T14:07:14;10.40;1.00
5592;DHT22;2818;49.790;9.958;2023-01-08T14:09:41;10.40;1.00
5592;DHT22;2818;49.790;9.958;2023-01-08T14:12:17;10.50;1.00
5592;DHT22;2818;49.790;9.958;2023-01-08T14:14:54;10.40;1.00
5592;DHT22;2818;49.790;9.958;2023-01-08T14:17:30;10.40;1.00
5592;DHT22;2818;49.790;9.958;2023-01-08T14:19:58;10.30;1.00
5592;DHT22;2818;49.790;9.958;2023-01-08T14:22:31;10.20;1.00
5592;DHT22;2818;49.790;9.958;2023-01-08T14:25:04;10.10;1.00
5592;DHT22;2818;49.790;9.958;2023-01-08T14:27:32;10.00;1.00
5592;DHT22;2818;49.790;9.958;2023-01-08T14:29:59;10.00;1.00
5592;DHT22;2818;49.790;9.958;2023-01-08T14:32:28;9.90;1.00
5592;DHT22;2818;49.790;9.958;2023-01-08T14:34:57;9.90;1.00
5592;DHT22;2818;49.790;9.958;2023-01-08T14:37:25;9.90;1.00
5592;DHT22;2818;49.790;9.958;2023-01-08T14:39:52;9.80;1.00
5592;DHT22;2818;49.790;9.958;2023-01-08T14:42:32;9.80;1.00
5592;DHT22;2818;49.790;9.958;2023-01-08T14:45:26;9.80;1.00
5592;DHT22;2818;49.790;9.958;2023-01-08T14:48:15;9.80;1.00
5592;DHT22;2818;49.790;9.958;2023-01-08T14:50:51;9.80;1.00
5592;DHT22;2818;49.790;9.958;2023-01-08T14:53:26;9.80;1.00
5592;DHT22;2818;49.790;9.958;2023-01-08T14:55:55;9.80;1.00
5592;DHT22;2818;49.790;9.958;2023-01-08T14:58:28;9.90;1.00
5592;DHT22;2818;49.790;9.958;2023-01-08T15:01:02;9.80;1.00
5592;DHT22;2818;49.790;9.958;2023-01-08T15:03:32;9.80;1.00
5592;DHT22;2818;49.790;9.958;2023-01-08T15:06:00;9.80;1.00
5592;DHT22;2818;49.790;9.958;2023-01-08T15:08:41;9.80;1.00
5592;DHT22;2818;49.790;9.958;2023-01-08T15:13:46;9.70;1.00
5592;DHT22;2818;49.790;9.958;2023-01-08T15:16:36;9.60;9.80
5592;DHT22;2818;49.790;9.958;2023-01-08T15:21:34;9.50;22.40
5592;DHT22;2818;49.790;9.958;2023-01-08T15:24:03;9.50;25.70
5592;DHT22;2818;49.790;9.958;2023-01-08T15:26:30;9.40;31.90
5592;DHT22;2818;49.790;9.958;2023-01-08T15:29:00;9.40;36.50
5592;DHT22;2818;49.790;9.958;2023-01-08T15:31:45;9.40;36.00
5592;DHT22;2818;49.790;9.958;2023-01-08T15:34:18;9.40;43.40
5592;DHT22;2818;49.790;9.958;2023-01-08T15:36:48;9.30;43.50
5592;DHT22;2818;49.790;9.958;2023-01-08T15:39:14;9.30;52.50
5592;DHT22;2818;49.790;9.958;2023-01-08T15:41:41;9.20;57.00
5592;DHT22;2818;49.790;9.958;2023-01-08T15:44:27;9.20;64.60
5592;DHT22;2818;49.790;9.958;2023-01-08T15:46:54;9.20;67.40
5592;DHT22;2818;49.790;9.958;2023-01-08T15:49:21;9.20;65.30
5592;DHT22;2818;49.790;9.958;2023-01-08T15:51:49;9.10;72.50
5592;DHT22;2818;49.790;9.958;2023-01-08T15:54:18;9.10;72.80
5592;DHT22;2818;49.790;9.958;2023-01-08T15:56:46;9.10;68.10
5592;DHT22;2818;49.790;9.958;2023-01-08T15:59:13;9.10;77.00
5592;DHT22;2818;49.790;9.958;2023-01-08T16:01:39;9.00;73.80
5592;DHT22;2818;49.790;9.958;2023-01-08T16:04:07;9.00;68.70
5592;DHT22;2818;49.790;9.958;2023-01-08T16:06:33;9.00;60.50
5592;DHT22;2818;49.790;9.958;2023-01-08T16:09:02;9.00;57.60
5592;DHT22;2818;49.790;9.958;2023-01-08T16:11:29;9.00;59.00
5592;DHT22;2818;49.790;9.958;2023-01-08T16:13:56;9.00;51.40
5592;DHT22;2818;49.790;9.958;2023-01-08T16:16:23;8.90;48.80
5592;DHT22;2818;49.790;9.958;2023-01-08T16:18:50;8.90;44.50
5592;DHT22;2818;49.790;9.958;2023-01-08T16:21:18;8.90;48.90
5592;DHT22;2818;49.790;9.958;2023-01-08T16:23:45;8.90;41.00
5592;DHT22;2818;49.790;9.958;2023-01-08T16:26:13;8.90;36.30
5592;DHT22;2818;49.790;9.958;2023-01-08T16:28:41;8.90;37.30
5592;DHT22;2818;49.790;9.958;2023-01-08T16:31:08;8.90;35.20
5592;DHT22;2818;49.790;9.958;2023-01-08T16:33:36;8.90;28.90
5592;DHT22;2818;49.790;9.958;2023-01-08T16:36:06;8.90;35.70
5592;DHT22;2818;49.790;9.958;2023-01-08T16:38:34;8.90;32.90
5592;DHT22;2818;49.790;9.958;2023-01-08T16:41:01;8.90;31.30
5592;DHT22;2818;49.790;9.958;2023-01-08T16:43:29;8.90;23.80
5592;DHT22;2818;49.790;9.958;2023-01-08T16:45:56;8.90;25.80
5592;DHT22;2818;49.790;9.958;2023-01-08T16:48:29;8.90;19.20
5592;DHT22;2818;49.790;9.958;2023-01-08T16:51:03;8.90;18.20
5592;DHT22;2818;49.790;9.958;2023-01-08T16:53:31;8.90;16.00
5592;DHT22;2818;49.790;9.958;2023-01-08T16:55:58;8.90;10.00
5592;DHT22;2818;49.790;9.958;2023-01-08T16:58:26;8.90;10.60
5592;DHT22;2818;49.790;9.958;2023-01-08T17:00:52;8.90;8.70
5592;DHT22;2818;49.790;9.958;2023-01-08T17:03:20;8.90;6.80
5592;DHT22;2818;49.790;9.958;2023-01-08T17:05:47;8.90;8.70
5592;DHT22;2818;49.790;9.958;2023-01-08T17:08:14;8.90;4.60
5592;DHT22;2818;49.790;9.958;2023-01-08T17:10:42;8.90;4.10
5592;DHT22;2818;49.790;9.958;2023-01-08T17:13:09;8.90;4.70
5592;DHT22;2818;49.790;9.958;2023-01-08T17:15:37;8.80;3.10
5592;DHT22;2818;49.790;9.958;2023-01-08T17:18:05;8.90;2.50
5592;DHT22;2818;49.790;9.958;2023-01-08T17:20:32;8.90;3.60
5592;DHT22;2818;49.790;9.958;2023-01-08T17:22:59;8.80;1.60
5592;DHT22;2818;49.790;9.958;2023-01-08T17:25:27;8.80;4.70
5592;DHT22;2818;49.790;9.958;2023-01-08T17:27:54;8.80;4.20
5592;DHT22;2818;49.790;9.958;2023-01-08T17:30:21;8.80;3.70
5592;DHT22;2818;49.790;9.958;2023-01-08T17:32:47;8.80;5.30
5592;DHT22;2818;49.790;9.958;2023-01-08T17:35:14;8.80;1.00
5592;DHT22;2818;49.790;9.958;2023-01-08T17:37:41;8.80;2.20
5592;DHT22;2818;49.790;9.958;2023-01-08T17:40:08;8.80;3.20
5592;DHT22;2818;49.790;9.958;2023-01-08T17:42:36;8.70;1.00
5592;DHT22;2818;49.790;9.958;2023-01-08T17:45:05;8.80;1.20
5592;DHT22;2818;49.790;9.958;2023-01-08T17:47:32;8.80;1.00
5592;DHT22;2818;49.790;9.958;2023-01-08T17:50:00;8.70;1.00
5592;DHT22;2818;49.790;9.958;2023-01-08T17:52:28;8.80;1.00
5592;DHT22;2818;49.790;9.958;2023-01-08T17:54:55;8.70;1.00
5592;DHT22;2818;49.790;9.958;2023-01-08T17:57:22;8.80;1.00
5592;DHT22;2818;49.790;9.958;2023-01-08T17:59:49;8.80;1.00
5592;DHT22;2818;49.790;9.958;2023-01-08T18:02:16;8.80;1.00
5592;DHT22;2818;49.790;9.958;2023-01-08T18:04:43;8.70;1.00
5592;DHT22;2818;49.790;9.958;2023-01-08T18:07:11;8.70;1.00
5592;DHT22;2818;49.790;9.958;2023-01-08T18:09:38;8.70;1.00
5592;DHT22;2818;49.790;9.958;2023-01-08T18:12:05;8.60;1.00
5592;DHT22;2818;49.790;9.958;2023-01-08T18:14:32;8.60;1.00
5592;DHT22;2818;49.790;9.958;2023-01-08T18:17:01;8.60;1.00
5592;DHT22;2818;49.790;9.958;2023-01-08T18:19:28;8.60;1.00
5592;DHT22;2818;49.790;9.958;2023-01-08T18:21:55;8.60;1.00